Time;durP1;ratioP1;P1;durP2;ratioP2;P2;SDS_P1;SDS_P2;PMS_P1;PMS_P2;Temp;Humidity;BMP_temperature;BMP_pressure;BME280_temperature;BME280_humidity;BME280_pressure;Samples;Min_cycle;Max_cycle;Signal;HPM_P1;HPM_P2
2022/12/03 00:01:50;;;;;;;12.98;7.32;;;;;;;6.31;74.08;94605.47;4967300;28;20019;-79
2022/12/03 00:04:16;;;;;;;12.80;7.45;;;;;;;6.31;74.03;94605.47;4966881;28;20069;-80
2022/12/03 00:06:41;;;;;;;12.95;6.97;;;;;;;6.32;73.97;94607.06;4967058;28;20035;-80
2022/12/03 00:09:06;;;;;;;14.80;9.05;;;;;;;6.29;74.19;94618.19;4967115;28;20094;-80
2022/12/03 00:11:32;;;;;;;10.88;6.43;;;;;;;6.27;74.20;94620.28;4965972;28;20027;-80
2022/12/03 00:13:58;;;;;;;11.30;6.25;;;;;;;6.28;74.13;94624.53;4966682;28;20340;-80
2022/12/03 00:16:23;;;;;;;12.20;7.10;;;;;;;6.28;74.09;94621.91;4966909;28;20065;-80
2022/12/03 00:18:48;;;;;;;13.02;6.90;;;;;;;6.30;74.10;94625.84;4967040;28;20019;-80
2022/12/03 00:21:14;;;;;;;12.70;6.97;;;;;;;6.29;74.15;94631.41;4966876;28;20262;-80
2022/12/03 00:23:39;;;;;;;13.20;6.90;;;;;;;6.25;74.24;94622.41;4966635;28;20302;-80
2022/12/03 00:26:05;;;;;;;12.50;7.03;;;;;;;6.19;74.01;94625.09;4966665;28;20074;-80
2022/12/03 00:28:30;;;;;;;10.02;6.07;;;;;;;6.15;74.07;94629.31;4966713;28;20023;-80
2022/12/03 00:30:56;;;;;;;11.95;5.88;;;;;;;6.04;74.38;94622.44;4966536;28;20023;-80
2022/12/03 00:33:21;;;;;;;13.40;6.40;;;;;;;6.01;74.62;94620.34;4966695;28;20033;-80
2022/12/03 00:35:47;;;;;;;10.70;6.22;;;;;;;5.92;74.79;94635.09;4966581;28;20019;-79
2022/12/03 00:38:13;;;;;;;13.82;7.45;;;;;;;5.81;75.47;94635.09;4966593;28;20034;-79
2022/12/03 00:40:38;;;;;;;13.13;6.68;;;;;;;5.72;75.94;94635.88;4966373;28;20229;-79
2022/12/03 00:43:03;;;;;;;12.90;7.25;;;;;;;5.61;76.35;94637.72;4966478;28;20027;-79
2022/12/03 00:45:29;;;;;;;12.98;7.93;;;;;;;5.57;77.01;94634.03;4966307;28;20027;-79
2022/12/03 00:47:54;;;;;;;11.32;6.43;;;;;;;5.53;76.93;94638.25;4966236;28;20015;-80
2022/12/03 00:50:20;;;;;;;10.88;6.75;;;;;;;5.48;76.82;94646.97;4966509;28;20321;-80
2022/12/03 00:52:46;;;;;;;17.13;8.48;;;;;;;5.44;77.44;94651.19;4966248;28;20317;-79
2022/12/03 00:55:11;;;;;;;14.40;8.73;;;;;;;5.48;77.72;94654.13;4966198;28;20019;-80
2022/12/03 00:57:37;;;;;;;18.48;10.65;;;;;;;5.46;77.83;94654.38;4966031;28;20026;-80
2022/12/03 01:00:04;;;;;;;12.90;8.32;;;;;;;5.46;77.71;94656.22;4966193;28;20023;-80
2022/12/03 01:02:29;;;;;;;13.27;7.63;;;;;;;5.48;77.83;94656.75;4966069;28;20046;-80
2022/12/03 01:04:55;;;;;;;14.80;8.57;;;;;;;5.48;77.77;94654.13;4965774;28;20364;-80
2022/12/03 01:07:20;;;;;;;15.02;7.95;;;;;;;5.42;77.79;94658.59;4966085;28;20031;-80
2022/12/03 01:09:46;;;;;;;16.00;8.10;;;;;;;5.46;78.46;94658.88;4965942;28;20094;-79
2022/12/03 01:12:11;;;;;;;12.27;7.75;;;;;;;5.46;78.11;94669.44;4965743;28;20031;-79
2022/12/03 01:14:37;;;;;;;13.30;8.63;;;;;;;5.44;77.66;94661.78;4965734;28;20015;-78
2022/12/03 01:17:02;;;;;;;17.52;7.85;;;;;;;5.42;77.77;94669.94;4965693;28;20043;-79
2022/12/03 01:19:28;;;;;;;12.68;6.85;;;;;;;5.37;77.92;94667.31;4965788;28;20026;-79
2022/12/03 01:21:54;;;;;;;12.63;7.63;;;;;;;5.31;78.08;94672.81;4965654;28;20020;-79
2022/12/03 01:24:20;;;;;;;12.43;7.22;;;;;;;5.28;78.55;94668.06;4965218;28;20023;-79
2022/12/03 01:26:46;;;;;;;14.23;7.97;;;;;;;5.31;78.80;94673.63;4965704;28;20023;-79
2022/12/03 01:29:12;;;;;;;14.48;7.78;;;;;;;5.30;78.58;94676.53;4965636;28;20027;-79
2022/12/03 01:34:21;;;;;;;14.13;7.28;;;;;;;5.30;78.48;94677.31;4965687;28;20096;-79
2022/12/03 01:36:46;;;;;;;11.55;7.10;;;;;;;5.32;78.47;94674.41;4965643;28;20317;-79
2022/12/03 01:39:12;;;;;;;16.10;8.90;;;;;;;5.35;78.18;94668.59;4996509;28;20023;-79
2022/12/03 01:41:38;;;;;;;15.60;8.57;;;;;;;5.37;78.24;94667.31;4965399;28;20309;-80
2022/12/03 01:44:11;;;;;;;16.48;8.63;;;;;;;5.40;78.02;94666.78;4965496;28;20265;-79
2022/12/03 01:46:39;;;;;;;17.00;8.88;;;;;;;5.42;78.50;94675.25;4965136;28;20032;-79
2022/12/03 01:49:08;;;;;;;15.52;8.27;;;;;;;5.47;78.04;94677.09;4965276;28;20027;-79
2022/12/03 01:51:33;;;;;;;16.15;8.40;;;;;;;5.45;77.59;94673.13;4963970;28;20031;-80
2022/12/03 01:53:59;;;;;;;16.15;8.50;;;;;;;5.43;77.82;94679.50;4965103;28;20027;-80
2022/12/03 01:56:25;;;;;;;13.40;7.80;;;;;;;5.46;77.73;94675.53;4965198;28;20030;-80
2022/12/03 01:58:51;;;;;;;15.00;8.00;;;;;;;5.49;78.02;94669.69;4965250;28;20031;-80
2022/12/03 02:01:18;;;;;;;13.45;8.20;;;;;;;5.51;77.92;94664.16;4965120;28;20027;-79
2022/12/03 02:03:45;;;;;;;15.60;8.85;;;;;;;5.55;77.87;94668.66;4996169;28;20031;-79
2022/12/03 02:06:17;;;;;;;15.70;7.72;;;;;;;5.63;77.69;94667.34;4965118;28;20035;-80
2022/12/03 02:08:43;;;;;;;13.68;8.00;;;;;;;5.65;77.42;94667.09;4964942;28;20241;-80
2022/12/03 02:11:28;;;;;;;15.77;8.88;;;;;;;5.69;77.45;94662.88;4964924;28;20027;-80
2022/12/03 02:13:58;;;;;;;13.85;7.70;;;;;;;5.76;77.09;94664.22;4964891;28;20034;-78
2022/12/03 02:16:24;;;;;;;14.40;8.68;;;;;;;5.77;76.82;94671.06;4964603;28;20053;-78
2022/12/03 02:18:49;;;;;;;16.60;9.07;;;;;;;5.72;76.93;94671.09;4965038;28;20093;-78
2022/12/03 02:21:19;;;;;;;15.25;8.73;;;;;;;5.72;77.21;94665.78;4963643;28;20031;-78
2022/12/03 02:24:16;;;;;;;19.88;10.50;;;;;;;5.78;76.97;94672.69;4964796;28;20094;-78
2022/12/03 02:26:42;;;;;;;14.93;9.10;;;;;;;5.81;76.99;94658.91;4961504;28;20058;-78
2022/12/03 02:29:07;;;;;;;19.05;10.18;;;;;;;5.84;77.04;94657.59;4964539;28;20027;-78
2022/12/03 02:31:33;;;;;;;16.73;9.77;;;;;;;5.88;76.98;94661.28;4964740;28;20317;-78
2022/12/03 02:33:58;;;;;;;20.17;9.32;;;;;;;5.93;76.48;94663.16;4964760;28;20027;-78
2022/12/03 02:36:24;;;;;;;17.63;9.70;;;;;;;5.94;76.21;94656.81;4967956;28;20217;-78
2022/12/03 02:38:50;;;;;;;16.25;8.95;;;;;;;5.96;76.37;94646.78;4999881;28;20030;-78
2022/12/03 02:44:06;;;;;;;19.23;9.85;;;;;;;5.97;76.09;94669.56;4968447;28;20101;-78
2022/12/03 02:46:32;;;;;;;19.95;9.98;;;;;;;5.99;76.46;94667.44;4968488;28;20031;-78
2022/12/03 02:48:59;;;;;;;19.17;10.68;;;;;;;6.01;75.99;94665.31;4968380;28;20094;-78
2022/12/03 02:51:25;;;;;;;16.65;8.73;;;;;;;5.98;76.00;94663.19;4968399;28;20022;-78
2022/12/03 02:53:53;;;;;;;16.08;9.13;;;;;;;5.96;75.97;94660.00;4968734;28;20034;-79
2022/12/03 02:56:25;;;;;;;16.65;9.23;;;;;;;5.97;75.84;94662.41;4999770;28;20023;-78
2022/12/03 02:58:55;;;;;;;21.15;9.27;;;;;;;5.94;76.20;94662.09;4968468;28;20023;-78
2022/12/03 03:01:20;;;;;;;17.33;9.10;;;;;;;5.99;76.03;94667.44;4968486;28;20015;-78
2022/12/03 03:03:47;;;;;;;14.25;8.35;;;;;;;5.97;75.62;94659.75;4967040;28;20015;-78
2022/12/03 03:06:14;;;;;;;16.80;8.52;;;;;;;5.95;75.81;94663.72;4968213;28;20027;-78
2022/12/03 03:08:41;;;;;;;13.90;8.23;;;;;;;5.94;75.76;94667.38;4968094;28;20213;-78
2022/12/03 03:11:06;;;;;;;16.55;9.45;;;;;;;5.88;75.99;94669.22;4968037;28;20313;-78
2022/12/03 03:13:34;;;;;;;15.50;8.60;;;;;;;5.81;76.21;94661.56;4968178;28;20094;-78
2022/12/03 03:16:02;;;;;;;13.50;8.38;;;;;;;5.72;76.34;94660.50;4967741;28;20025;-78
2022/12/03 03:18:28;;;;;;;17.33;8.93;;;;;;;5.66;76.66;94658.09;4967930;28;20019;-78
2022/12/03 03:20:53;;;;;;;18.00;8.77;;;;;;;5.59;77.06;94658.34;4967868;28;20019;-78
2022/12/03 03:23:21;;;;;;;20.13;10.32;;;;;;;5.54;77.42;94658.34;4967958;28;20019;-78
2022/12/03 03:25:57;;;;;;;17.40;9.18;;;;;;;5.54;77.49;94658.34;4967963;28;20035;-77
2022/12/03 03:28:23;;;;;;;17.15;9.40;;;;;;;5.57;77.47;94655.97;4967597;28;20053;-77
2022/12/03 03:30:49;;;;;;;16.10;9.20;;;;;;;5.60;77.57;94646.72;4967804;28;20114;-78
2022/12/03 03:33:15;;;;;;;16.40;9.15;;;;;;;5.61;77.62;94646.44;4967682;28;20057;-78
2022/12/03 03:35:42;;;;;;;17.60;9.75;;;;;;;5.66;77.40;94655.44;4998910;28;20043;-78
2022/12/03 03:38:08;;;;;;;14.00;8.35;;;;;;;5.67;77.27;94655.19;4967632;28;20098;-78
2022/12/03 03:40:35;;;;;;;16.33;7.65;;;;;;;5.62;77.12;94648.06;4967351;28;20031;-78
2022/12/03 03:43:01;;;;;;;15.57;8.90;;;;;;;5.67;77.01;94657.06;4967405;28;20338;-78
2022/12/03 03:45:27;;;;;;;20.50;8.88;;;;;;;5.68;77.15;94651.50;4967403;28;20106;-78
2022/12/03 03:47:53;;;;;;;14.00;8.05;;;;;;;5.70;77.17;94661.81;4967278;28;20094;-78
2022/12/03 03:50:19;;;;;;;12.82;7.50;;;;;;;5.75;76.98;94667.91;4967652;28;20030;-78
2022/12/03 03:52:45;;;;;;;9.77;6.65;;;;;;;5.79;76.52;94665.53;4966086;28;20210;-78
2022/12/03 03:55:11;;;;;;;10.85;6.28;;;;;;;5.80;76.41;94670.56;4967354;28;20019;-78
2022/12/03 03:57:38;;;;;;;10.93;6.72;;;;;;;5.86;76.31;94667.91;4967137;28;20026;-78
2022/12/03 04:00:06;;;;;;;14.30;7.43;;;;;;;5.84;76.28;94670.81;4967273;28;20031;-77
2022/12/03 04:02:32;;;;;;;12.77;7.43;;;;;;;5.90;76.23;94663.69;4967228;28;20099;-77
2022/12/03 04:04:59;;;;;;;14.27;9.07;;;;;;;5.91;76.16;94660.00;4966847;28;20313;-77
2022/12/03 04:07:24;;;;;;;15.73;8.88;;;;;;;5.90;76.36;94668.97;4967163;28;20277;-78
2022/12/03 04:09:50;;;;;;;15.27;8.75;;;;;;;5.93;76.33;94676.41;4967148;28;20026;-78
2022/12/03 04:14:59;;;;;;;15.98;8.52;;;;;;;5.94;76.26;94675.31;4966974;29;20025;-78
2022/12/03 04:17:25;;;;;;;14.45;8.05;;;;;;;5.97;76.08;94685.44;4966653;28;20059;-77
2022/12/03 04:19:50;;;;;;;15.18;8.52;;;;;;;6.02;75.85;94693.34;4966894;28;20023;-77
2022/12/03 04:30:28;;;;;;;12.85;7.05;;;;;;;6.01;75.83;94691.78;4966557;28;20029;-78
2022/12/03 04:35:43;;;;;;;13.75;7.85;;;;;;;6.00;75.66;94706.88;4966587;28;20057;-78
2022/12/03 04:38:12;;;;;;;13.35;7.47;;;;;;;6.00;75.79;94701.59;4966598;28;20030;-78
2022/12/03 04:43:22;;;;;;;14.02;6.82;;;;;;;6.02;75.12;94699.47;4966454;28;20035;-78
2022/12/03 04:45:48;;;;;;;13.38;7.55;;;;;;;6.03;74.97;94702.91;4965376;28;20043;-78
2022/12/03 04:48:13;;;;;;;9.75;6.80;;;;;;;6.02;74.96;94709.25;4966229;28;20038;-78
2022/12/03 04:50:39;;;;;;;9.50;5.88;;;;;;;6.00;74.84;94700.75;4966162;28;20027;-78
2022/12/03 04:53:04;;;;;;;10.68;6.78;;;;;;;5.99;74.87;94693.91;4966211;28;20277;-78
2022/12/03 04:55:30;;;;;;;11.20;5.53;;;;;;;6.00;74.66;94698.13;4966170;28;20030;-78
2022/12/03 04:57:55;;;;;;;12.15;6.53;;;;;;;5.97;74.43;94694.16;4965512;28;20027;-77
2022/12/03 05:00:21;;;;;;;13.95;7.57;;;;;;;5.96;74.70;94686.47;4966181;28;20317;-78
2022/12/03 05:02:46;;;;;;;10.98;6.13;;;;;;;5.93;74.78;94700.22;4966243;28;20045;-78
2022/12/03 05:05:12;;;;;;;8.48;5.38;;;;;;;5.89;74.62;94693.84;4965910;28;20313;-78
2022/12/03 05:07:37;;;;;;;10.60;6.00;;;;;;;5.86;74.80;94700.44;4965856;28;20027;-78
2022/12/03 05:10:04;;;;;;;11.98;5.97;;;;;;;5.87;74.60;94702.06;4964820;28;20022;-78
2022/12/03 05:12:29;;;;;;;8.50;5.20;;;;;;;5.81;74.50;94700.47;4965701;28;20019;-78
2022/12/03 05:14:55;;;;;;;10.07;5.47;;;;;;;5.69;75.18;94703.34;4965907;28;20045;-78
2022/12/03 05:17:20;;;;;;;8.43;5.28;;;;;;;5.66;75.31;94703.06;4965642;28;20074;-78
2022/12/03 05:22:29;;;;;;;10.82;6.78;;;;;;;5.65;75.63;94704.13;4965673;28;20035;-77
2022/12/03 05:24:55;;;;;;;12.90;5.90;;;;;;;5.61;75.87;94703.84;4965527;28;20023;-77
2022/12/03 05:27:20;;;;;;;9.63;5.65;;;;;;;5.61;75.80;94706.50;4965809;28;20234;-78
2022/12/03 05:29:46;;;;;;;9.57;5.47;;;;;;;5.62;76.09;94706.25;4965490;28;20086;-77
2022/12/03 05:32:12;;;;;;;8.18;4.82;;;;;;;5.66;75.83;94703.88;4965602;28;20038;-78
2022/12/03 05:34:37;;;;;;;12.75;6.47;;;;;;;5.66;75.94;94711.81;4965635;28;20218;-78
2022/12/03 05:37:02;;;;;;;9.48;5.70;;;;;;;5.72;76.02;94710.75;4965479;28;20261;-78
2022/12/03 05:39:28;;;;;;;9.35;5.57;;;;;;;5.76;75.86;94717.13;4965417;28;20027;-78
2022/12/03 05:44:37;;;;;;;11.80;6.80;;;;;;;5.75;76.28;94720.03;4965221;28;20127;-78
2022/12/03 05:47:03;;;;;;;9.77;6.05;;;;;;;5.79;75.82;94716.59;4965176;28;20214;-78
2022/12/03 05:49:28;;;;;;;14.00;5.70;;;;;;;5.83;76.06;94728.22;4965284;28;20034;-77
2022/12/03 05:51:53;;;;;;;11.95;6.35;;;;;;;5.85;76.21;94720.03;4965278;28;20019;-77
2022/12/03 05:54:19;;;;;;;13.60;7.38;;;;;;;5.87;75.86;94727.72;4965015;28;20213;-78
2022/12/03 05:56:44;;;;;;;17.08;8.25;;;;;;;5.90;75.64;94712.09;4964952;28;20008;-78
2022/12/03 05:59:10;;;;;;;15.85;7.47;;;;;;;5.94;75.44;94720.31;4964981;28;20199;-78
2022/12/03 06:01:35;;;;;;;14.60;7.80;;;;;;;5.97;75.06;94728.56;4965138;28;20050;-78
2022/12/03 06:04:01;;;;;;;19.88;8.93;;;;;;;6.01;75.07;94728.84;4964943;28;20110;-78
2022/12/03 06:06:26;;;;;;;17.95;7.63;;;;;;;6.02;74.90;94741.00;4964926;28;20050;-78
2022/12/03 06:08:51;;;;;;;15.35;7.28;;;;;;;5.99;75.10;94747.63;4964679;28;20380;-78
2022/12/03 06:11:17;;;;;;;11.68;6.90;;;;;;;6.00;75.16;94743.09;4964593;28;20019;-78
2022/12/03 06:13:42;;;;;;;10.48;6.22;;;;;;;6.02;75.54;94746.28;4964662;28;20099;-79
2022/12/03 06:16:08;;;;;;;11.35;5.75;;;;;;;6.01;75.50;94740.22;4964620;28;20039;-79
2022/12/03 06:18:33;;;;;;;10.77;6.50;;;;;;;6.04;75.29;94744.19;4964860;28;20023;-79
2022/12/03 06:20:59;;;;;;;9.95;5.68;;;;;;;6.08;75.22;94747.09;4964693;28;20026;-79
2022/12/03 06:23:24;;;;;;;9.50;5.53;;;;;;;6.07;75.34;94748.97;4964632;28;20341;-78
2022/12/03 06:25:49;;;;;;;9.75;5.22;;;;;;;6.09;75.38;94744.19;4964605;28;20090;-79
2022/12/03 06:28:15;;;;;;;15.10;6.50;;;;;;;6.14;74.90;94748.69;4964654;28;20028;-79
2022/12/03 06:30:40;;;;;;;9.73;5.97;;;;;;;6.18;74.58;94742.59;4964482;28;20026;-79
2022/12/03 06:33:06;;;;;;;13.00;7.38;;;;;;;6.20;74.73;94755.59;4964523;28;20019;-79
2022/12/03 06:35:31;;;;;;;15.57;8.60;;;;;;;6.27;74.51;94752.66;4964492;28;20309;-79
2022/12/03 06:37:57;;;;;;;26.73;13.75;;;;;;;6.28;74.49;94754.28;4964539;28;20090;-79
2022/12/03 06:40:23;;;;;;;19.40;10.68;;;;;;;6.31;74.08;94756.38;4964405;28;20019;-79
2022/12/03 06:42:49;;;;;;;32.03;10.07;;;;;;;6.30;74.36;94762.75;4964682;28;20390;-79
2022/12/03 06:45:14;;;;;;;13.95;8.82;;;;;;;6.31;74.17;94751.09;4964351;28;20035;-79
2022/12/03 06:47:39;;;;;;;38.58;19.10;;;;;;;6.32;74.18;94758.78;4964386;28;20321;-79
2022/12/03 06:50:07;;;;;;;31.58;15.32;;;;;;;6.35;74.26;94752.16;4964534;28;20023;-79
2022/12/03 06:52:32;;;;;;;24.77;11.38;;;;;;;6.35;74.17;94749.50;4964441;28;20030;-79
2022/12/03 06:54:58;;;;;;;20.13;9.70;;;;;;;6.33;74.32;94747.13;4964245;28;20016;-79
2022/12/03 06:57:23;;;;;;;20.65;11.70;;;;;;;6.35;74.18;94752.16;4964416;28;20015;-79
2022/12/03 06:59:49;;;;;;;20.85;9.18;;;;;;;6.38;74.12;94743.69;4964650;28;20225;-79
2022/12/03 07:02:14;;;;;;;17.00;10.02;;;;;;;6.40;73.98;94744.22;4964338;28;20019;-79
2022/12/03 07:04:39;;;;;;;13.13;7.80;;;;;;;6.40;74.13;94744.22;4964050;28;20019;-78
2022/12/03 07:07:05;;;;;;;11.15;6.80;;;;;;;6.45;73.80;94756.66;4964305;28;20026;-78
2022/12/03 07:09:30;;;;;;;9.88;5.35;;;;;;;6.44;73.33;94758.53;4964280;28;20027;-78
2022/12/03 07:11:56;;;;;;;9.35;4.65;;;;;;;6.41;73.11;94759.03;4964399;28;20028;-79
2022/12/03 07:14:21;;;;;;;9.60;5.53;;;;;;;6.41;73.28;94761.69;4964206;28;20023;-78
2022/12/03 07:16:47;;;;;;;12.55;5.30;;;;;;;6.44;73.17;94769.13;4964284;28;20058;-79
2022/12/03 07:19:12;;;;;;;9.93;5.43;;;;;;;6.47;73.22;94768.56;4964205;28;20031;-79
2022/12/03 07:21:38;;;;;;;6.28;3.83;;;;;;;6.51;72.67;94769.63;4965998;28;20023;-79
2022/12/03 07:24:04;;;;;;;11.60;5.10;;;;;;;6.53;72.44;94772.03;4966610;28;20317;-77
2022/12/03 07:26:30;;;;;;;9.50;5.38;;;;;;;6.55;72.25;94770.69;4967509;28;20027;-77
2022/12/03 07:28:56;;;;;;;6.88;4.28;;;;;;;6.51;72.45;94774.94;4967363;28;20071;-78
2022/12/03 07:31:21;;;;;;;9.20;5.40;;;;;;;6.51;72.38;94768.84;4998722;28;20221;-78
2022/12/03 07:33:54;;;;;;;9.75;5.43;;;;;;;6.54;72.00;94782.34;4967460;28;20094;-79
2022/12/03 07:36:20;;;;;;;11.43;5.20;;;;;;;6.56;71.35;94782.88;4967258;28;20062;-79
2022/12/03 07:38:45;;;;;;;7.30;4.10;;;;;;;6.60;71.57;94788.47;4967270;28;20023;-78
2022/12/03 07:41:13;;;;;;;7.07;3.85;;;;;;;6.61;71.00;94774.94;4967403;28;20319;-78
2022/12/03 07:43:38;;;;;;;5.70;3.42;;;;;;;6.66;70.23;94786.59;4967322;28;20053;-78
2022/12/03 07:46:04;;;;;;;7.47;4.70;;;;;;;6.67;69.90;94778.38;4967205;28;20321;-78
2022/12/03 07:48:29;;;;;;;15.55;4.22;;;;;;;6.67;70.11;94780.22;4967394;28;20069;-78
2022/12/03 07:50:55;;;;;;;8.75;4.45;;;;;;;6.70;70.03;94790.31;4967252;28;20034;-78
2022/12/03 07:53:20;;;;;;;7.35;4.22;;;;;;;6.68;69.73;94784.50;4967358;28;20221;-77
2022/12/03 07:55:46;;;;;;;12.65;4.47;;;;;;;6.70;69.96;94782.38;4998385;28;20039;-77
2022/12/03 07:58:11;;;;;;;10.88;3.88;;;;;;;6.70;70.00;94785.03;4967112;28;20098;-79
2022/12/03 08:00:36;;;;;;;8.38;4.43;;;;;;;6.71;70.34;94781.28;4967061;28;20015;-78
2022/12/03 08:03:02;;;;;;;11.68;5.10;;;;;;;6.73;70.46;94779.97;4966901;28;20217;-78
2022/12/03 08:05:28;;;;;;;9.07;5.10;;;;;;;6.78;70.01;94779.19;4966842;28;20035;-78
2022/12/03 08:07:54;;;;;;;9.48;5.22;;;;;;;6.83;70.19;94782.59;4966909;28;20019;-78
2022/12/03 08:10:19;;;;;;;11.02;4.93;;;;;;;6.87;70.42;94787.38;4967107;28;20046;-79
2022/12/03 08:12:45;;;;;;;11.57;5.47;;;;;;;6.89;69.52;94791.34;4966799;28;20023;-78
2022/12/03 08:15:17;;;;;;;15.05;7.45;;;;;;;6.92;70.01;94790.00;4966900;28;20019;-79
2022/12/03 08:17:45;;;;;;;11.23;5.78;;;;;;;6.95;70.52;94794.78;4965270;28;20043;-78
2022/12/03 08:20:15;;;;;;;10.02;4.70;;;;;;;6.99;70.58;94796.63;4966619;28;20035;-76
2022/12/03 08:22:42;;;;;;;8.88;4.72;;;;;;;7.13;70.69;94799.53;4966455;28;20035;-76
2022/12/03 08:25:30;;;;;;;8.45;4.28;;;;;;;7.23;69.64;94804.03;4966390;28;20078;-76
2022/12/03 08:28:01;;;;;;;7.13;4.10;;;;;;;7.33;69.57;94805.88;4966437;28;20266;-76
2022/12/03 08:30:27;;;;;;;6.68;4.25;;;;;;;7.38;68.54;94811.94;4997507;28;20038;-77
2022/12/03 08:32:52;;;;;;;9.57;4.30;;;;;;;7.37;67.37;94809.59;4965372;28;20034;-78
2022/12/03 08:35:29;;;;;;;13.63;4.03;;;;;;;7.32;67.40;94807.72;4966208;28;20197;-76
2022/12/03 08:38:10;;;;;;;13.98;4.65;;;;;;;7.22;67.44;94805.09;4966198;28;20030;-78
2022/12/03 08:40:40;;;;;;;8.15;4.53;;;;;;;7.06;67.35;94811.47;4966167;28;20027;-79
2022/12/03 08:43:18;;;;;;;8.18;5.35;;;;;;;6.95;68.20;94808.06;4966136;28;20023;-77
2022/12/03 08:45:44;;;;;;;8.73;4.68;;;;;;;6.87;68.16;94805.94;4966087;28;20027;-80
2022/12/03 08:48:28;;;;;;;6.38;4.00;;;;;;;6.87;68.57;94814.69;4965000;28;20034;-77
2022/12/03 08:50:56;;;;;;;7.20;4.43;;;;;;;6.90;68.90;94816.81;4965673;28;20031;-77
2022/12/03 08:53:29;;;;;;;15.40;5.63;;;;;;;6.82;68.80;94814.69;4965704;28;20054;-76
2022/12/03 08:56:11;;;;;;;16.33;5.80;;;;;;;6.91;69.48;94821.03;4965457;28;20030;-77
2022/12/03 08:58:40;;;;;;;13.57;5.95;;;;;;;7.03;69.85;94810.94;4965338;28;20023;-76
2022/12/03 09:01:11;;;;;;;8.90;5.57;;;;;;;7.19;68.72;94810.94;4965754;28;20099;-78
2022/12/03 09:03:48;;;;;;;7.53;4.40;;;;;;;7.25;68.13;94809.09;4965510;28;20404;-78
2022/12/03 09:06:14;;;;;;;9.52;4.63;;;;;;;7.33;67.77;94806.66;4965482;28;20274;-77
2022/12/03 09:08:39;;;;;;;6.55;4.18;;;;;;;7.42;66.58;94805.03;4965522;28;20332;-77
2022/12/03 09:11:04;;;;;;;9.23;5.70;;;;;;;7.47;66.84;94801.59;4965206;28;20358;-77
2022/12/03 09:13:30;;;;;;;10.57;6.07;;;;;;;7.55;66.52;94805.53;4965207;28;20023;-77
2022/12/03 09:15:55;;;;;;;9.30;5.93;;;;;;;7.59;66.15;94804.75;4965284;28;20012;-76
2022/12/03 09:18:21;;;;;;;7.63;5.13;;;;;;;7.67;65.89;94805.22;4965305;28;20333;-77
2022/12/03 09:20:46;;;;;;;9.52;5.32;;;;;;;7.71;66.11;94804.41;4965127;28;20025;-77
2022/12/03 09:23:11;;;;;;;9.15;5.13;;;;;;;7.77;65.61;94800.66;4965101;28;20106;-78
2022/12/03 09:25:37;;;;;;;7.82;4.22;;;;;;;7.82;65.50;94800.66;4965007;28;20047;-78
2022/12/03 09:28:03;;;;;;;9.70;5.28;;;;;;;7.84;65.51;94803.84;4965224;28;20102;-78
2022/12/03 09:30:28;;;;;;;11.38;7.10;;;;;;;7.87;65.92;94802.50;4965094;28;20381;-78
2022/12/03 09:32:53;;;;;;;14.18;7.65;;;;;;;7.95;65.42;94811.75;4964942;28;20019;-78
2022/12/03 09:35:19;;;;;;;12.60;7.47;;;;;;;8.00;65.35;94803.78;4965336;28;20053;-78
2022/12/03 09:37:44;;;;;;;14.77;7.40;;;;;;;8.07;65.01;94803.47;4965050;28;20011;-79
2022/12/03 09:40:10;;;;;;;18.50;7.20;;;;;;;8.11;65.42;94802.66;4965201;28;20705;-79
2022/12/03 09:42:36;;;;;;;13.77;7.15;;;;;;;8.17;65.57;94792.78;4964966;28;20023;-78
2022/12/03 09:45:06;;;;;;;16.35;6.80;;;;;;;8.19;64.99;94795.97;4964695;28;20103;-78
2022/12/03 09:47:31;;;;;;;9.27;5.85;;;;;;;8.23;64.49;94803.09;4964903;28;20027;-78
2022/12/03 09:49:57;;;;;;;12.18;6.20;;;;;;;8.24;64.09;94798.59;4964961;28;20030;-78
2022/12/03 09:52:27;;;;;;;10.60;5.97;;;;;;;8.23;64.64;94795.13;4964988;28;20045;-78
2022/12/03 09:54:52;;;;;;;13.23;6.93;;;;;;;8.31;64.63;94793.00;4964784;28;20023;-78
2022/12/03 09:57:18;;;;;;;15.45;6.95;;;;;;;8.29;64.09;94779.19;4964986;28;20035;-78
2022/12/03 09:59:44;;;;;;;18.70;9.13;;;;;;;8.28;63.87;94780.25;4964842;28;20023;-78
2022/12/03 10:02:21;;;;;;;19.08;10.38;;;;;;;8.30;64.23;94772.78;4964487;28;20027;-78
2022/12/03 10:04:47;;;;;;;20.95;11.55;;;;;;;8.38;63.90;94780.19;4964716;28;20066;-78
2022/12/03 10:07:13;;;;;;;18.90;9.82;;;;;;;8.42;63.65;94768.75;4964734;28;20265;-78
2022/12/03 10:09:39;;;;;;;10.85;5.82;;;;;;;8.50;63.81;94766.56;4964660;28;20027;-79
2022/12/03 10:12:04;;;;;;;10.50;5.07;;;;;;;8.58;63.94;94764.13;4964739;28;20206;-78
2022/12/03 10:14:30;;;;;;;8.38;4.20;;;;;;;8.66;63.75;94764.59;4964713;28;20098;-78
2022/12/03 10:16:57;;;;;;;6.72;4.28;;;;;;;8.70;63.30;94766.41;4964406;28;20387;-78
2022/12/03 10:19:26;;;;;;;8.80;4.45;;;;;;;8.77;63.02;94758.13;4964773;28;20023;-78
2022/12/03 10:21:51;;;;;;;15.18;8.27;;;;;;;8.78;62.65;94759.72;4964584;28;20111;-79
2022/12/03 10:24:27;;;;;;;23.65;13.23;;;;;;;8.81;62.80;94761.78;4964797;28;20027;-79
2022/12/03 10:26:58;;;;;;;17.58;11.60;;;;;;;8.82;62.22;94758.09;4964560;28;20031;-78
2022/12/03 10:29:26;;;;;;;11.05;7.25;;;;;;;8.82;62.26;94758.09;4964420;28;20033;-77
2022/12/03 10:32:01;;;;;;;12.02;6.97;;;;;;;8.79;62.77;94753.31;4964609;28;20034;-77
2022/12/03 10:34:33;;;;;;;7.68;4.80;;;;;;;8.73;62.28;94752.59;4964644;28;20336;-76
2022/12/03 10:37:19;;;;;;;7.90;4.75;;;;;;;8.72;62.48;94750.97;4964830;28;20029;-77
2022/12/03 10:40:11;;;;;;;9.38;4.82;;;;;;;8.77;62.49;94752.78;4964637;28;20277;-77
2022/12/03 10:42:39;;;;;;;8.65;5.40;;;;;;;8.78;62.81;94749.88;4962625;29;20263;-77
2022/12/03 10:45:23;;;;;;;12.18;5.78;;;;;;;8.81;62.74;94744.00;4964447;28;20090;-77
2022/12/03 10:48:19;;;;;;;7.68;4.78;;;;;;;8.82;62.23;94750.09;4963279;28;20023;-77
2022/12/03 10:50:48;;;;;;;8.75;4.82;;;;;;;8.76;62.46;94752.00;4964529;28;20033;-77
2022/12/03 10:53:14;;;;;;;11.48;4.65;;;;;;;8.76;62.81;94745.91;4964244;28;20031;-77
2022/12/03 10:55:42;;;;;;;11.48;5.25;;;;;;;8.82;62.67;94740.25;4964613;28;20023;-77
2022/12/03 10:58:18;;;;;;;8.48;5.75;;;;;;;8.86;62.56;94743.16;4999634;28;20086;-77
2022/12/03 11:00:44;;;;;;;13.43;4.65;;;;;;;8.88;62.41;94737.56;4968245;28;20071;-77
2022/12/03 11:03:20;;;;;;;9.80;5.32;;;;;;;8.88;62.08;94743.66;4967947;28;20019;-77
2022/12/03 11:05:46;;;;;;;9.05;4.57;;;;;;;8.88;61.78;94733.03;4968060;28;20069;-77
2022/12/03 11:08:19;;;;;;;7.05;4.70;;;;;;;8.91;61.54;94731.69;4967877;28;20042;-77
2022/12/03 11:10:54;;;;;;;10.35;6.53;;;;;;;8.93;61.44;94727.66;4967842;28;20278;-77
2022/12/03 11:13:47;;;;;;;10.07;6.10;;;;;;;8.96;61.33;94736.97;4967946;28;20019;-77
2022/12/03 11:16:33;;;;;;;8.38;4.72;;;;;;;8.97;61.38;94735.88;4967809;28;20047;-77
2022/12/03 11:19:00;;;;;;;7.82;4.47;;;;;;;8.95;61.33;94732.69;4967648;28;20027;-77
2022/12/03 11:21:25;;;;;;;8.07;4.85;;;;;;;8.99;61.20;94728.41;4967555;28;20027;-77
2022/12/03 11:23:51;;;;;;;7.07;4.35;;;;;;;9.03;60.96;94726.78;4967801;28;20019;-77
2022/12/03 11:26:25;;;;;;;25.98;10.98;;;;;;;9.03;60.80;94724.91;4967627;28;20031;-77
2022/12/03 11:28:52;;;;;;;19.50;8.18;;;;;;;9.06;60.88;94728.06;4967591;28;20241;-77
2022/12/03 11:31:39;;;;;;;22.23;9.45;;;;;;;9.09;61.62;94722.19;4967780;28;20043;-77
2022/12/03 11:34:19;;;;;;;16.25;6.85;;;;;;;9.09;61.45;94730.97;4967376;28;20038;-79
2022/12/03 11:37:10;;;;;;;13.73;7.05;;;;;;;9.09;61.66;94728.31;4967486;28;20062;-79
2022/12/03 11:39:50;;;;;;;22.48;11.27;;;;;;;9.09;61.43;94720.31;4967601;28;20027;-78
2022/12/03 11:42:25;;;;;;;33.40;15.95;;;;;;;9.08;61.58;94721.41;4967498;28;20048;-77
2022/12/03 11:45:05;;;;;;;16.95;8.93;;;;;;;9.08;61.49;94724.06;4967583;28;20047;-77
2022/12/03 11:47:40;;;;;;;10.88;6.47;;;;;;;9.11;61.50;94720.03;4967360;28;20421;-77
2022/12/03 11:50:20;;;;;;;12.15;6.03;;;;;;;9.11;61.50;94709.41;4967262;28;20023;-77
2022/12/03 11:52:51;;;;;;;9.60;5.78;;;;;;;9.09;61.12;94708.91;4967185;28;20225;-78
2022/12/03 11:55:29;;;;;;;12.45;5.95;;;;;;;9.00;60.93;94700.75;4967299;28;20037;-78
2022/12/03 11:58:03;;;;;;;13.85;7.50;;;;;;;8.92;61.79;94706.69;4998470;28;20050;-78
2022/12/03 12:00:29;;;;;;;11.75;6.18;;;;;;;8.84;61.95;94716.06;4967023;28;20034;-78
2022/12/03 12:02:57;;;;;;;11.13;6.22;;;;;;;8.80;62.56;94707.84;4998332;28;20035;-78
2022/12/03 12:05:29;;;;;;;13.10;6.22;;;;;;;8.81;62.60;94716.59;4966908;28;20035;-78